createdAt,value
2018-09-14T00:01:07.638Z,4.17
2018-09-14T00:03:12.585Z,4.27
2018-09-14T00:05:20.220Z,4.00
2018-09-14T00:07:27.008Z,4.30
2018-09-14T00:09:32.210Z,4.50
2018-09-14T00:11:37.045Z,3.90
2018-09-14T00:13:41.925Z,4.50
2018-09-14T00:15:47.658Z,4.43
2018-09-14T00:17:52.431Z,4.57
2018-09-14T00:19:57.324Z,3.67
2018-09-14T00:22:02.246Z,4.57
2018-09-14T00:24:06.968Z,4.20
2018-09-14T00:26:12.027Z,4.77
2018-09-14T00:28:17.066Z,5.70
2018-09-14T00:30:21.809Z,5.43
2018-09-14T00:32:26.611Z,5.13
2018-09-14T00:34:34.272Z,5.03
2018-09-14T00:36:39.372Z,5.10
2018-09-14T00:38:44.149Z,5.30
2018-09-14T00:40:50.192Z,4.77
2018-09-14T00:42:55.293Z,5.70
2018-09-14T00:45:00.297Z,6.00
2018-09-14T00:47:05.137Z,6.37
2018-09-14T00:49:10.227Z,5.80
2018-09-14T00:51:15.145Z,5.43
2018-09-14T00:53:19.882Z,5.23
2018-09-14T00:55:25.116Z,5.23
2018-09-14T00:57:30.185Z,5.80
2018-09-14T00:59:35.280Z,5.10
2018-09-14T01:01:40.245Z,5.60
2018-09-14T01:03:45.298Z,5.80
2018-09-14T01:05:50.245Z,5.70
2018-09-14T01:07:55.261Z,5.53
2018-09-14T01:10:00.386Z,5.33
2018-09-14T01:12:05.472Z,5.77
2018-09-14T01:14:10.513Z,5.87
2018-09-14T01:16:15.762Z,6.97
2018-09-14T01:18:20.748Z,6.20
2018-09-14T01:20:25.827Z,6.37
2018-09-14T01:22:30.823Z,6.47
2018-09-14T01:24:35.598Z,6.13
2018-09-14T01:26:40.446Z,6.97
2018-09-14T01:28:45.497Z,5.90
2018-09-14T01:30:50.401Z,5.70
2018-09-14T01:32:55.253Z,6.40
2018-09-14T01:35:00.315Z,5.90
2018-09-14T01:37:05.134Z,6.00
2018-09-14T01:39:12.447Z,6.43
2018-09-14T01:41:17.622Z,6.27
2018-09-14T01:43:22.611Z,5.80
2018-09-14T01:45:27.454Z,5.77
2018-09-14T01:47:32.141Z,6.60
2018-09-14T01:49:36.896Z,5.30
2018-09-14T01:51:41.901Z,6.00
2018-09-14T01:53:46.713Z,5.47
2018-09-14T01:55:51.889Z,6.20
2018-09-14T01:57:57.885Z,5.60
2018-09-14T02:00:02.866Z,6.30
2018-09-14T02:02:07.639Z,5.70
2018-09-14T02:04:12.667Z,5.63
2018-09-14T02:06:18.039Z,6.27
2018-09-14T02:08:23.043Z,5.67
2018-09-14T02:10:28.090Z,5.70
2018-09-14T02:12:33.127Z,6.03
2018-09-14T02:14:37.903Z,5.27
2018-09-14T02:16:42.996Z,6.27
2018-09-14T02:18:47.837Z,5.90
2018-09-14T02:20:52.939Z,5.70
2018-09-14T02:22:57.973Z,5.63
2018-09-14T02:25:03.187Z,5.87
2018-09-14T02:27:08.322Z,6.10
2018-09-14T02:29:13.307Z,5.70
2018-09-14T02:31:18.382Z,4.87
2018-09-14T02:33:23.415Z,5.53
2018-09-14T02:35:28.430Z,6.50
2018-09-14T02:37:34.448Z,5.90
2018-09-14T02:39:39.378Z,5.20
2018-09-14T02:41:44.121Z,6.30
2018-09-14T02:43:48.922Z,5.90
2018-09-14T02:45:53.898Z,5.20
2018-09-14T02:47:59.262Z,5.80
2018-09-14T02:50:05.094Z,6.20
2018-09-14T02:52:09.891Z,5.10
2018-09-14T02:54:15.118Z,6.60
2018-09-14T02:56:20.118Z,6.50
2018-09-14T02:58:25.099Z,6.60
2018-09-14T03:00:30.160Z,6.23
2018-09-14T03:02:34.866Z,6.20
2018-09-14T03:04:39.857Z,6.30
2018-09-14T03:06:44.672Z,5.43
2018-09-14T03:08:49.410Z,4.90
2018-09-14T03:10:54.153Z,4.73
2018-09-14T03:12:58.894Z,5.50
2018-09-14T03:15:03.712Z,5.63
2018-09-14T03:17:08.555Z,6.80
2018-09-14T03:19:13.366Z,6.73
2018-09-14T03:21:18.160Z,6.07
2018-09-14T03:23:22.870Z,6.47
2018-09-14T03:25:27.658Z,7.17
2018-09-14T03:27:33.453Z,6.03
2018-09-14T03:29:38.204Z,7.10
2018-09-14T03:31:42.962Z,5.80
2018-09-14T03:33:47.763Z,6.20
2018-09-14T03:35:52.590Z,4.80
2018-09-14T03:37:57.426Z,6.23
2018-09-14T03:40:02.216Z,5.30
2018-09-14T03:42:07.135Z,5.23
2018-09-14T03:44:11.917Z,6.50
2018-09-14T03:46:16.647Z,5.90
2018-09-14T03:48:21.370Z,5.93
2018-09-14T03:50:26.136Z,5.80
2018-09-14T03:52:30.826Z,5.80
2018-09-14T03:54:35.564Z,6.67
2018-09-14T03:56:40.292Z,5.80
2018-09-14T03:58:45.105Z,5.87
2018-09-14T04:00:49.896Z,6.70
2018-09-14T04:02:54.752Z,5.40
2018-09-14T04:04:59.539Z,5.83
2018-09-14T04:07:04.411Z,6.63
2018-09-14T04:09:11.014Z,5.77
2018-09-14T04:11:15.812Z,6.33
2018-09-14T04:13:20.565Z,5.97
2018-09-14T04:15:25.309Z,6.20
2018-09-14T04:17:30.223Z,6.40
2018-09-14T04:19:34.981Z,6.50
2018-09-14T04:21:39.811Z,6.07
2018-09-14T04:23:44.584Z,7.00
2018-09-14T04:25:49.291Z,6.40
2018-09-14T04:27:54.070Z,6.50
2018-09-14T04:29:59.797Z,6.30
2018-09-14T04:32:04.510Z,6.33
2018-09-14T04:34:09.267Z,6.77
2018-09-14T04:36:16.003Z,6.00
2018-09-14T04:38:20.867Z,7.20
2018-09-14T04:40:25.579Z,5.87
2018-09-14T04:42:30.284Z,6.70
2018-09-14T04:44:34.992Z,7.67
2018-09-14T04:46:39.834Z,7.33
2018-09-14T04:48:44.619Z,8.20
2018-09-14T04:50:49.425Z,7.30
2018-09-14T04:52:54.416Z,8.90
2018-09-14T04:54:59.239Z,8.90
2018-09-14T04:57:06.374Z,8.03
2018-09-14T04:59:11.178Z,9.70
2018-09-14T05:01:16.320Z,8.57
2018-09-14T05:03:21.062Z,9.80
2018-09-14T05:05:26.197Z,9.03
2018-09-14T05:07:31.118Z,10.63
2018-09-14T05:09:36.168Z,10.27
2018-09-14T05:11:41.142Z,10.53
2018-09-14T05:13:46.102Z,10.73
2018-09-14T05:15:50.935Z,11.53
2018-09-14T05:17:56.002Z,11.80
2018-09-14T05:20:02.118Z,12.77
2018-09-14T05:22:07.037Z,11.60
2018-09-14T05:24:12.132Z,12.10
2018-09-14T05:26:17.169Z,11.87
2018-09-14T05:28:22.098Z,12.57
2018-09-14T05:30:27.043Z,12.53
2018-09-14T05:32:32.070Z,11.70
2018-09-14T05:34:36.963Z,13.50
2018-09-14T05:36:42.404Z,14.00
2018-09-14T05:38:47.756Z,12.50
2018-09-14T05:40:52.746Z,13.40
2018-09-14T05:42:57.960Z,13.90
2018-09-14T05:45:02.993Z,14.83
2018-09-14T05:47:08.803Z,15.00
2018-09-14T05:49:13.705Z,13.70
2018-09-14T05:51:18.779Z,13.00
2018-09-14T05:53:23.764Z,13.37
2018-09-14T05:55:28.797Z,15.43
2018-09-14T05:57:33.996Z,14.10
2018-09-14T06:01:53.455Z,14.17
2018-09-14T06:03:58.291Z,14.50
2018-09-14T06:06:03.398Z,16.13
2018-09-14T06:08:08.281Z,14.97
2018-09-14T06:10:13.184Z,15.37
2018-09-14T06:12:18.120Z,15.07
2018-09-14T06:14:22.977Z,14.83
2018-09-14T06:16:27.745Z,15.80
2018-09-14T06:18:32.612Z,15.33
2018-09-14T06:20:37.444Z,15.80
2018-09-14T06:22:42.411Z,14.87
2018-09-14T06:24:47.217Z,15.47
2018-09-14T06:26:52.082Z,15.10
2018-09-14T06:28:56.836Z,15.33
2018-09-14T06:31:01.990Z,14.23
2018-09-14T06:33:07.001Z,15.80
2018-09-14T06:35:11.685Z,16.77
2018-09-14T06:37:16.696Z,16.03
2018-09-14T06:39:21.804Z,17.00
2018-09-14T06:41:26.580Z,16.73
2018-09-14T06:43:31.353Z,18.20
2018-09-14T06:45:36.343Z,16.93
2018-09-14T06:47:41.794Z,15.73
2018-09-14T06:49:46.688Z,17.70
2018-09-14T06:51:51.436Z,16.20
2018-09-14T06:53:56.286Z,15.30
2018-09-14T06:56:01.320Z,15.40
2018-09-14T06:58:06.165Z,15.83
2018-09-14T07:00:11.227Z,16.63
2018-09-14T07:02:16.149Z,15.43
2018-09-14T07:04:21.030Z,17.23
2018-09-14T07:06:25.956Z,15.50
2018-09-14T07:08:30.932Z,16.03
2018-09-14T07:10:35.943Z,16.20
2018-09-14T07:12:40.634Z,15.30
2018-09-14T07:14:45.429Z,14.67
2018-09-14T07:16:50.408Z,16.07
2018-09-14T07:18:55.322Z,17.60
2018-09-14T07:21:00.223Z,15.90
2018-09-14T07:23:05.021Z,16.40
2018-09-14T07:25:09.768Z,14.73
2018-09-14T07:27:14.477Z,15.67
2018-09-14T07:29:19.227Z,15.70
2018-09-14T07:31:23.976Z,15.23
2018-09-14T07:33:29.554Z,15.60
2018-09-14T07:35:34.258Z,15.37
2018-09-14T07:37:39.148Z,14.57
2018-09-14T07:39:43.985Z,15.17
2018-09-14T07:41:48.843Z,16.60
2018-09-14T07:43:53.828Z,14.73
2018-09-14T07:45:58.778Z,15.50
2018-09-14T07:48:03.943Z,17.20
2018-09-14T07:50:08.817Z,16.63
2018-09-14T07:52:13.648Z,15.93
2018-09-14T07:54:18.530Z,14.03
2018-09-14T07:56:23.318Z,15.80
2018-09-14T07:58:28.101Z,15.80
2018-09-14T08:00:33.177Z,14.13
2018-09-14T08:02:38.036Z,15.17
2018-09-14T08:04:43.010Z,15.67
2018-09-14T08:06:47.906Z,13.97
2018-09-14T08:08:52.744Z,14.57
2018-09-14T08:10:57.928Z,14.00
2018-09-14T08:13:03.055Z,13.93
2018-09-14T08:15:07.831Z,13.97
2018-09-14T08:17:12.771Z,13.30
2018-09-14T08:19:17.799Z,13.27
2018-09-14T08:21:23.140Z,13.70
2018-09-14T08:23:28.802Z,12.97
2018-09-14T08:25:33.630Z,12.67
2018-09-14T08:27:38.547Z,12.60
2018-09-14T08:29:43.252Z,13.17
2018-09-14T08:31:48.081Z,14.17
2018-09-14T08:33:53.139Z,14.80
2018-09-14T08:35:58.177Z,13.40
2018-09-14T08:38:03.059Z,14.80
2018-09-14T08:40:08.082Z,14.47
2018-09-14T08:42:12.879Z,14.30
2018-09-14T08:44:18.029Z,15.53
2018-09-14T08:46:23.101Z,14.57
2018-09-14T08:48:28.171Z,14.80
2018-09-14T08:50:33.174Z,14.37
2018-09-14T08:52:38.321Z,16.00
2018-09-14T08:54:43.193Z,16.30
2018-09-14T08:56:47.946Z,16.00
2018-09-14T08:58:52.820Z,14.27
2018-09-14T09:00:57.846Z,15.33
2018-09-14T09:03:02.620Z,15.10
2018-09-14T09:05:07.523Z,16.10
2018-09-14T09:07:12.640Z,16.10
2018-09-14T09:09:17.837Z,14.37
2018-09-14T09:11:22.933Z,15.57
2018-09-14T09:13:28.039Z,15.80
2018-09-14T09:15:32.782Z,17.60
2018-09-14T09:17:37.608Z,15.50
2018-09-14T09:19:42.430Z,17.60
2018-09-14T09:21:47.343Z,19.60
2018-09-14T09:23:52.372Z,16.60
2018-09-14T09:25:57.457Z,16.77
2018-09-14T09:28:02.519Z,19.10
2018-09-14T09:30:07.621Z,17.80
2018-09-14T09:32:12.610Z,18.17
2018-09-14T09:34:17.680Z,19.13
2018-09-14T09:36:22.740Z,18.60
2018-09-14T09:38:27.845Z,17.20
2018-09-14T09:40:32.850Z,17.20
2018-09-14T09:42:37.916Z,18.53
2018-09-14T09:44:43.010Z,16.23
2018-09-14T09:46:48.171Z,17.63
2018-09-14T09:48:55.651Z,18.67
2018-09-14T09:51:00.567Z,16.63
2018-09-14T09:53:07.084Z,17.50
2018-09-14T09:55:12.174Z,15.97
2018-09-14T09:57:17.091Z,15.77
2018-09-14T09:59:22.220Z,14.87
2018-09-14T10:01:34.223Z,14.20
2018-09-14T10:03:44.637Z,13.40
2018-09-14T10:05:54.928Z,14.10
2018-09-14T10:07:59.984Z,13.00
2018-09-14T10:10:04.916Z,13.10
2018-09-14T10:12:10.023Z,12.10
2018-09-14T10:14:15.295Z,10.93
2018-09-14T10:16:20.457Z,11.53
2018-09-14T10:18:25.626Z,11.33
2018-09-14T10:20:30.642Z,12.00
2018-09-14T10:22:35.659Z,10.97
2018-09-14T10:24:40.708Z,10.97
2018-09-14T10:26:45.705Z,11.67
2018-09-14T10:28:50.666Z,12.07
2018-09-14T10:30:56.124Z,11.73
2018-09-14T10:33:01.240Z,10.87
2018-09-14T10:35:06.280Z,9.43
2018-09-14T10:37:11.052Z,8.90
2018-09-14T10:39:16.165Z,8.90
2018-09-14T10:41:21.064Z,10.37
2018-09-14T10:43:26.395Z,9.97
2018-09-14T10:45:31.079Z,9.77
2018-09-14T10:47:35.765Z,9.30
2018-09-14T10:49:40.639Z,9.83
2018-09-14T10:51:45.674Z,9.47
2018-09-14T10:53:50.738Z,8.73
2018-09-14T10:55:55.791Z,8.43
2018-09-14T10:58:00.586Z,8.73
2018-09-14T11:00:05.869Z,9.70
2018-09-14T11:02:10.968Z,7.60
2018-09-14T11:04:16.037Z,8.70
2018-09-14T11:06:21.125Z,7.80
2018-09-14T11:08:25.963Z,8.00
2018-09-14T11:10:31.073Z,7.07
2018-09-14T11:12:36.227Z,7.17
2018-09-14T11:14:41.991Z,7.17
2018-09-14T11:16:47.061Z,6.70
2018-09-14T11:18:53.724Z,7.70
2018-09-14T11:20:58.645Z,7.30
2018-09-14T11:23:03.584Z,6.60
2018-09-14T11:25:08.745Z,6.73
2018-09-14T11:27:14.309Z,7.00
2018-09-14T11:29:19.439Z,6.70
2018-09-14T11:31:27.770Z,6.27
2018-09-14T11:33:32.676Z,5.43
2018-09-14T11:35:37.513Z,6.37
2018-09-14T11:37:42.737Z,7.10
2018-09-14T11:39:47.674Z,7.37
2018-09-14T11:41:52.545Z,6.20
2018-09-14T11:43:58.113Z,6.90
2018-09-14T11:46:02.925Z,5.70
2018-09-14T11:48:07.964Z,5.83
2018-09-14T11:50:12.883Z,6.80
2018-09-14T11:52:18.051Z,6.50
2018-09-14T11:54:23.498Z,6.60
2018-09-14T11:56:28.394Z,5.30
2018-09-14T11:58:33.550Z,5.10
2018-09-14T12:00:38.592Z,7.47
2018-09-14T12:02:43.610Z,5.20
2018-09-14T12:04:48.396Z,6.13
2018-09-14T12:06:53.727Z,5.43
2018-09-14T12:08:58.837Z,6.27
2018-09-14T12:11:04.401Z,5.30
2018-09-14T12:13:09.626Z,5.50
2018-09-14T12:15:15.407Z,5.30
2018-09-14T12:17:20.186Z,5.27
2018-09-14T12:19:25.670Z,5.23
2018-09-14T12:21:30.780Z,5.20
2018-09-14T12:23:36.286Z,4.70
2018-09-14T12:25:41.577Z,6.73
2018-09-14T12:27:46.432Z,5.33
2018-09-14T12:29:53.589Z,4.97
2018-09-14T12:31:59.043Z,4.97
2018-09-14T12:34:04.186Z,5.77
2018-09-14T12:36:09.679Z,5.47
2018-09-14T12:38:14.899Z,5.50
2018-09-14T12:40:19.827Z,5.00
2018-09-14T12:42:25.605Z,5.23
2018-09-14T12:44:30.452Z,5.40
2018-09-14T12:46:35.324Z,5.83
2018-09-14T12:48:41.720Z,5.07
2018-09-14T12:50:46.461Z,4.40
2018-09-14T12:52:51.414Z,4.70
2018-09-14T12:54:56.367Z,6.60
2018-09-14T12:57:01.378Z,4.07
2018-09-14T12:59:06.904Z,5.37
2018-09-14T13:01:11.777Z,4.70
2018-09-14T13:03:16.867Z,5.07
2018-09-14T13:05:21.789Z,5.30
2018-09-14T13:07:28.817Z,7.43
2018-09-14T13:09:33.880Z,5.23
2018-09-14T13:11:39.128Z,4.73
2018-09-14T13:13:44.796Z,4.50
2018-09-14T13:15:50.362Z,5.00
2018-09-14T13:17:59.986Z,4.73
2018-09-14T13:20:05.206Z,5.03
2018-09-14T13:22:10.583Z,4.80
2018-09-14T13:24:15.407Z,6.50
2018-09-14T13:26:20.271Z,5.60
2018-09-14T13:28:25.053Z,4.90
2018-09-14T13:30:29.864Z,3.63
2018-09-14T13:32:34.817Z,4.57
2018-09-14T13:34:39.672Z,4.23
2018-09-14T13:36:44.514Z,3.97
2018-09-14T13:38:49.360Z,3.63
2018-09-14T13:40:54.271Z,4.07
2018-09-14T13:42:59.096Z,4.57
2018-09-14T13:45:04.011Z,4.37
2018-09-14T13:47:08.951Z,4.17
2018-09-14T13:49:13.784Z,5.20
2018-09-14T13:51:18.814Z,4.50
2018-09-14T13:53:23.674Z,5.07
2018-09-14T13:55:28.486Z,4.40
2018-09-14T13:57:33.409Z,3.97
2018-09-14T13:59:38.275Z,5.50
2018-09-14T14:01:43.063Z,4.20
2018-09-14T14:03:47.845Z,4.03
2018-09-14T14:05:52.893Z,3.80
2018-09-14T14:07:57.985Z,4.80
2018-09-14T14:10:02.760Z,4.67
2018-09-14T14:12:07.604Z,4.20
2018-09-14T14:14:12.576Z,4.60
2018-09-14T14:16:17.772Z,3.57
2018-09-14T14:18:22.634Z,3.63
2018-09-14T14:20:27.700Z,3.30
2018-09-14T14:22:33.604Z,2.40
2018-09-14T14:24:38.497Z,3.33
2018-09-14T14:26:43.205Z,2.60
2018-09-14T14:28:48.561Z,2.53
2018-09-14T14:30:54.029Z,2.67
2018-09-14T14:32:58.814Z,2.73
2018-09-14T14:35:03.689Z,2.20
2018-09-14T14:37:08.378Z,2.60
2018-09-14T14:39:13.144Z,2.60
2018-09-14T14:41:18.461Z,3.10
2018-09-14T14:43:24.391Z,2.90
2018-09-14T14:45:29.665Z,2.80
2018-09-14T14:47:34.543Z,3.47
2018-09-14T14:49:39.325Z,2.80
2018-09-14T14:51:44.568Z,2.97
2018-09-14T14:53:49.371Z,2.50
2018-09-14T14:55:55.920Z,2.60
2018-09-14T14:58:01.843Z,3.20
2018-09-14T15:00:07.762Z,3.07
2018-09-14T15:02:12.982Z,3.50
2018-09-14T15:04:18.211Z,3.50
2018-09-14T15:06:25.513Z,2.30
2018-09-14T15:08:31.421Z,2.70
2018-09-14T15:10:36.239Z,2.67
2018-09-14T15:12:41.156Z,2.10
2018-09-14T15:14:46.423Z,2.50
2018-09-14T15:16:51.480Z,2.80
2018-09-14T15:18:56.310Z,2.10
2018-09-14T15:21:01.115Z,3.43
2018-09-14T15:23:05.918Z,2.57
2018-09-14T15:25:10.794Z,2.90
2018-09-14T15:27:15.640Z,2.80
2018-09-14T15:29:20.428Z,2.63
2018-09-14T15:31:25.955Z,2.73
2018-09-14T15:33:31.029Z,2.20
2018-09-14T15:35:36.339Z,2.87
2018-09-14T15:37:41.535Z,3.07
2018-09-14T15:39:46.659Z,2.77
2018-09-14T15:41:51.948Z,2.40
2018-09-14T15:43:57.028Z,3.00
2018-09-14T15:46:02.412Z,3.07
2018-09-14T15:48:07.810Z,2.83
2018-09-14T15:50:13.013Z,2.30
2018-09-14T15:52:18.111Z,3.17
2018-09-14T15:54:28.150Z,3.23
2018-09-14T15:56:33.322Z,2.93
2018-09-14T15:58:38.955Z,2.40
2018-09-14T16:00:44.357Z,2.70
2018-09-14T16:02:50.728Z,3.33
2018-09-14T16:04:56.951Z,2.30
2018-09-14T16:07:04.984Z,2.47
2018-09-14T16:09:11.342Z,3.17
2018-09-14T16:11:16.686Z,2.80
2018-09-14T16:13:21.820Z,2.70
2018-09-14T16:15:27.417Z,3.40
2018-09-14T16:17:32.635Z,3.10
2018-09-14T16:19:39.095Z,2.57
2018-09-14T16:21:45.940Z,3.23
2018-09-14T16:23:51.413Z,3.10
2018-09-14T16:25:57.557Z,2.87
2018-09-14T16:28:03.219Z,2.37
2018-09-14T16:30:09.694Z,2.70
2018-09-14T16:32:15.628Z,2.87
2018-09-14T16:34:21.778Z,2.80
2018-09-14T16:36:27.132Z,2.60
2018-09-14T16:38:34.312Z,3.17
2018-09-14T16:40:41.554Z,2.80
2018-09-14T16:42:47.304Z,2.80
2018-09-14T16:44:53.231Z,2.67
2018-09-14T16:47:00.115Z,2.47
2018-09-14T16:49:05.285Z,2.43
2018-09-14T16:51:11.246Z,2.63
2018-09-14T16:53:16.693Z,2.10
2018-09-14T16:55:22.012Z,2.90
2018-09-14T16:57:27.168Z,2.27
2018-09-14T16:59:33.381Z,2.07
2018-09-14T17:01:39.654Z,2.73
2018-09-14T17:03:45.618Z,2.57
2018-09-14T17:05:51.073Z,2.70
2018-09-14T17:07:57.952Z,2.40
2018-09-14T17:10:03.195Z,1.90
2018-09-14T17:12:09.009Z,2.40
2018-09-14T17:14:14.833Z,2.60
2018-09-14T17:16:21.691Z,2.07
2018-09-14T17:18:32.119Z,2.20
2018-09-14T17:20:37.758Z,2.33
2018-09-14T17:22:51.380Z,2.23
2018-09-14T17:25:03.361Z,2.43
2018-09-14T17:27:09.873Z,2.23
2018-09-14T17:29:22.707Z,3.37
2018-09-14T17:34:24.067Z,1.80
2018-09-14T17:36:31.166Z,1.83
2018-09-14T17:38:36.978Z,2.57
2018-09-14T17:40:42.577Z,1.70
2018-09-14T17:42:49.440Z,2.50
2018-09-14T17:44:58.850Z,2.17
2018-09-14T17:47:05.914Z,1.90
2018-09-14T17:49:12.793Z,2.40
2018-09-14T17:51:19.088Z,1.80
2018-09-14T17:53:26.181Z,1.80
2018-09-14T17:55:35.200Z,2.00
2018-09-14T17:57:40.979Z,2.33
2018-09-14T17:59:46.977Z,1.40
2018-09-14T18:01:54.849Z,2.17
2018-09-14T18:04:01.651Z,2.07
2018-09-14T18:06:08.467Z,2.37
2018-09-14T18:08:14.960Z,1.77
2018-09-14T18:10:22.531Z,2.17
2018-09-14T18:12:28.025Z,2.47
2018-09-14T18:14:33.306Z,2.00
2018-09-14T18:16:38.613Z,2.67
2018-09-14T18:18:43.703Z,2.37
2018-09-14T18:20:50.073Z,2.80
2018-09-14T18:22:57.999Z,2.50
2018-09-14T18:25:04.052Z,3.50
2018-09-14T18:27:13.464Z,1.97
2018-09-14T18:29:18.741Z,2.00
2018-09-14T18:31:25.757Z,2.20
2018-09-14T18:33:31.614Z,2.13
2018-09-14T18:35:36.883Z,2.53
2018-09-14T18:37:42.362Z,2.20
2018-09-14T18:39:51.058Z,2.23
2018-09-14T18:41:56.398Z,1.67
2018-09-14T18:44:03.640Z,2.37
2018-09-14T18:46:09.002Z,2.10
2018-09-14T18:48:14.985Z,2.00
2018-09-14T18:50:20.377Z,2.27
2018-09-14T18:52:26.264Z,2.07
2018-09-14T18:54:31.807Z,2.57
2018-09-14T18:56:43.687Z,2.67
2018-09-14T18:58:48.938Z,2.27
2018-09-14T19:00:56.036Z,2.07
2018-09-14T19:03:01.173Z,1.83
2018-09-14T19:05:08.167Z,2.00
2018-09-14T19:07:13.670Z,2.17
2018-09-14T19:09:19.691Z,1.90
2018-09-14T19:11:26.380Z,2.30
2018-09-14T19:13:32.752Z,2.03
2018-09-14T19:15:39.900Z,2.63
2018-09-14T19:17:45.368Z,2.97
2018-09-14T19:19:51.222Z,2.40
2018-09-14T19:21:57.981Z,2.10
2018-09-14T19:24:07.450Z,2.00
2018-09-14T19:26:15.313Z,1.80
2018-09-14T19:28:20.791Z,2.63
2018-09-14T19:30:27.521Z,2.27
2018-09-14T19:32:35.639Z,1.80
2018-09-14T19:34:42.749Z,2.00
2018-09-14T19:36:51.780Z,2.20
2018-09-14T19:39:00.127Z,2.33
2018-09-14T19:41:06.704Z,2.33
2018-09-14T19:43:15.423Z,2.70
2018-09-14T19:45:23.324Z,2.57
2018-09-14T19:47:30.963Z,2.40
2018-09-14T19:49:38.109Z,2.40
2018-09-14T19:51:44.165Z,2.83
2018-09-14T19:53:52.301Z,2.93
2018-09-14T19:55:58.359Z,2.70
2018-09-14T19:58:05.581Z,2.57
2018-09-14T20:00:10.942Z,3.13
2018-09-14T20:02:21.239Z,2.73
2018-09-14T20:04:29.543Z,2.27
2018-09-14T20:06:36.149Z,2.23
2018-09-14T20:08:42.187Z,2.33
2018-09-14T20:10:48.582Z,3.90
2018-09-14T20:12:54.385Z,2.77
2018-09-14T20:15:00.106Z,2.90
2018-09-14T20:17:10.296Z,2.53
2018-09-14T20:19:21.610Z,2.33
2018-09-14T20:21:32.964Z,2.60
2018-09-14T20:23:40.249Z,2.87
2018-09-14T20:25:48.883Z,3.13
2018-09-14T20:27:54.568Z,3.37
2018-09-14T20:30:02.398Z,2.73
2018-09-14T20:32:09.083Z,2.30
2018-09-14T20:34:15.096Z,3.03
2018-09-14T20:36:22.208Z,3.00
2018-09-14T20:38:30.871Z,2.80
2018-09-14T20:40:37.053Z,3.40
2018-09-14T20:42:43.119Z,3.63
2018-09-14T20:44:50.413Z,3.10
2018-09-14T20:46:57.173Z,2.90
2018-09-14T20:49:04.042Z,3.10
2018-09-14T20:51:18.268Z,3.23
2018-09-14T20:53:25.082Z,3.80
2018-09-14T20:55:39.741Z,3.17
2018-09-14T20:57:48.055Z,2.97
2018-09-14T21:00:00.515Z,3.17
2018-09-14T21:02:09.472Z,2.73
2018-09-14T21:04:19.230Z,3.20
2018-09-14T21:06:28.647Z,3.90
2018-09-14T21:08:38.333Z,2.70
2018-09-14T21:10:46.399Z,3.40
2018-09-14T21:12:53.392Z,3.07
2018-09-14T21:15:00.852Z,3.40
2018-09-14T21:17:09.512Z,3.23
2018-09-14T21:19:18.191Z,3.17
2018-09-14T21:21:28.407Z,3.57
2018-09-14T21:23:36.126Z,3.30
2018-09-14T21:25:41.419Z,3.03
2018-09-14T21:27:46.725Z,2.63
2018-09-14T21:29:51.955Z,2.20
2018-09-14T21:31:58.451Z,3.20
2018-09-14T21:34:04.950Z,2.53
2018-09-14T21:36:10.322Z,2.40
2018-09-14T21:38:15.493Z,2.40
2018-09-14T21:40:21.804Z,2.50
2018-09-14T21:42:26.915Z,3.00
2018-09-14T21:44:32.147Z,2.57
2018-09-14T21:46:37.603Z,2.10
2018-09-14T21:48:43.243Z,2.70
2018-09-14T21:50:48.587Z,2.20
2018-09-14T21:52:54.583Z,2.63
2018-09-14T21:55:00.019Z,1.80
2018-09-14T21:57:05.940Z,2.73
2018-09-14T21:59:10.805Z,2.20
2018-09-14T22:01:19.860Z,2.60
2018-09-14T22:03:25.156Z,2.07
2018-09-14T22:05:30.051Z,1.97
2018-09-14T22:07:34.933Z,2.23
2018-09-14T22:09:44.552Z,2.20
2018-09-14T22:11:49.855Z,2.57
2018-09-14T22:14:00.048Z,2.07
2018-09-14T22:16:05.476Z,2.63
2018-09-14T22:18:10.588Z,2.93
2018-09-14T22:20:15.429Z,2.80
2018-09-14T22:22:20.479Z,2.53
2018-09-14T22:24:25.638Z,2.50
2018-09-14T22:26:30.799Z,2.40
2018-09-14T22:28:37.217Z,3.00
2018-09-14T22:30:42.986Z,2.70
2018-09-14T22:32:48.552Z,2.50
2018-09-14T22:34:56.502Z,2.73
2018-09-14T22:37:01.628Z,2.63
2018-09-14T22:39:10.220Z,2.40
2018-09-14T22:41:15.348Z,2.70
2018-09-14T22:43:20.871Z,2.70
2018-09-14T22:45:26.085Z,2.47
2018-09-14T22:47:31.417Z,3.17
2018-09-14T22:49:36.785Z,2.43
2018-09-14T22:51:42.081Z,3.00
2018-09-14T22:53:47.389Z,2.57
2018-09-14T22:55:52.429Z,3.03
2018-09-14T22:57:57.494Z,2.43
2018-09-14T23:00:02.566Z,2.57
2018-09-14T23:02:07.878Z,2.90
2018-09-14T23:04:13.424Z,2.73
2018-09-14T23:06:18.795Z,2.57
2018-09-14T23:08:23.822Z,2.20
2018-09-14T23:10:28.979Z,2.73
2018-09-14T23:12:34.091Z,2.90
2018-09-14T23:14:39.196Z,2.23
2018-09-14T23:16:44.361Z,2.10
2018-09-14T23:18:49.513Z,2.50
2018-09-14T23:20:54.728Z,2.83
2018-09-14T23:22:59.979Z,2.43
2018-09-14T23:25:05.351Z,2.50
2018-09-14T23:27:11.275Z,2.77
2018-09-14T23:29:16.473Z,2.40
2018-09-14T23:31:21.867Z,2.57
2018-09-14T23:33:26.948Z,1.90
2018-09-14T23:35:31.938Z,2.63
2018-09-14T23:37:36.883Z,3.00
2018-09-14T23:39:41.905Z,3.77
2018-09-14T23:41:47.321Z,3.20
2018-09-14T23:43:52.590Z,2.60
2018-09-14T23:45:57.788Z,3.00
2018-09-14T23:48:02.870Z,2.43
2018-09-14T23:50:08.050Z,2.80
2018-09-14T23:52:13.084Z,2.97
2018-09-14T23:54:18.190Z,3.13
2018-09-14T23:56:23.298Z,3.60
2018-09-14T23:58:28.374Z,3.10
